Time;durP1;ratioP1;P1;durP2;ratioP2;P2;SDS_P1;SDS_P2;PMS_P1;PMS_P2;Temp;Humidity;BMP_temperature;BMP_pressure;BME280_temperature;BME280_humidity;BME280_pressure;Samples;Min_cycle;Max_cycle;Signal;HPM_P1;HPM_P2
2023/05/18 00:02:06;;;;;;;7.18;3.63;;;11.30;99.90;;;;;;4932901;29;20166;-95
2023/05/18 00:04:33;;;;;;;9.55;3.60;;;11.30;99.90;;;;;;4923978;29;20141;-96
2023/05/18 00:07:02;;;;;;;11.73;3.90;;;11.20;99.90;;;;;;4924292;29;20169;-95
2023/05/18 00:09:33;;;;;;;8.95;4.10;;;11.20;99.90;;;;;;4923566;29;20050;-96
2023/05/18 00:11:59;;;;;;;5.95;3.33;;;11.20;99.90;;;;;;4941147;29;20032;-95
2023/05/18 00:14:27;;;;;;;6.82;2.97;;;11.10;99.90;;;;;;4924823;29;20028;-95
2023/05/18 00:16:53;;;;;;;15.30;3.92;;;11.10;99.90;;;;;;4924874;29;20040;-96
2023/05/18 00:19:20;;;;;;;7.30;3.50;;;11.00;99.90;;;;;;4925225;29;20032;-94
2023/05/18 00:21:49;;;;;;;10.32;3.53;;;11.00;99.90;;;;;;4924759;29;20043;-96
2023/05/18 00:24:15;;;;;;;5.63;3.33;;;11.00;99.90;;;;;;4917394;29;20063;-95
2023/05/18 00:26:43;;;;;;;8.10;3.13;;;11.00;99.90;;;;;;4926660;29;20055;-95
2023/05/18 00:29:09;;;;;;;7.30;3.13;;;11.00;99.90;;;;;;4926189;29;20054;-95
2023/05/18 00:31:37;;;;;;;6.53;3.17;;;11.00;99.90;;;;;;4926257;29;20406;-96
2023/05/18 00:34:03;;;;;;;8.07;3.92;;;10.90;99.90;;;;;;4927090;29;20047;-96
2023/05/18 00:36:30;;;;;;;6.22;3.30;;;10.90;99.90;;;;;;4927902;29;20040;-96
2023/05/18 00:38:57;;;;;;;11.65;3.88;;;10.90;99.90;;;;;;4931144;29;20051;-95
2023/05/18 00:41:23;;;;;;;7.13;3.30;;;10.80;99.90;;;;;;4938843;29;20108;-94
2023/05/18 00:43:49;;;;;;;7.55;3.58;;;10.80;99.90;;;;;;4943961;29;20031;-95
2023/05/18 00:46:15;;;;;;;6.43;3.35;;;10.80;99.90;;;;;;4943870;29;20099;-93
2023/05/18 00:48:41;;;;;;;8.02;3.25;;;10.90;99.90;;;;;;4943591;29;20038;-94
2023/05/18 00:51:07;;;;;;;6.43;3.67;;;10.80;99.90;;;;;;4943575;29;20024;-96
2023/05/18 00:53:32;;;;;;;6.80;3.50;;;10.90;99.90;;;;;;4943146;29;20011;-96
2023/05/18 00:55:58;;;;;;;6.90;3.65;;;10.90;99.90;;;;;;4940152;29;20613;-95
2023/05/18 00:58:25;;;;;;;7.15;3.70;;;10.90;99.90;;;;;;4927833;29;20027;-96
2023/05/18 01:00:52;;;;;;;7.00;3.40;;;10.80;99.90;;;;;;4929569;29;20094;-95
2023/05/18 01:03:21;;;;;;;7.78;3.67;;;10.80;99.90;;;;;;4936481;29;20024;-94
2023/05/18 01:05:54;;;;;;;11.10;3.97;;;10.80;99.90;;;;;;4943570;29;20016;-95
2023/05/18 01:08:21;;;;;;;7.18;3.38;;;10.80;99.90;;;;;;4915219;29;20028;-95
2023/05/18 01:10:53;;;;;;;10.60;4.47;;;10.80;99.90;;;;;;4923941;29;20086;-96
2023/05/18 01:13:42;;;;;;;9.95;3.80;;;10.70;99.90;;;;;;4924652;29;20116;-96
2023/05/18 01:16:13;;;;;;;10.43;4.13;;;10.70;99.90;;;;;;4923983;29;20039;-96
2023/05/18 01:19:15;;;;;;;8.57;3.85;;;10.60;99.90;;;;;;4923228;29;20032;-95
2023/05/18 01:21:57;;;;;;;7.38;3.50;;;10.50;99.90;;;;;;4922086;29;20482;-95
2023/05/18 01:24:34;;;;;;;9.02;3.97;;;10.50;99.90;;;;;;4923732;29;20032;-95
2023/05/18 01:27:05;;;;;;;8.90;3.88;;;10.40;99.90;;;;;;4927074;29;20116;-94
2023/05/18 01:29:32;;;;;;;6.65;3.25;;;10.30;99.90;;;;;;4909471;29;20031;-95
2023/05/18 01:32:00;;;;;;;7.25;3.80;;;10.30;99.90;;;;;;4925258;29;20098;-95
2023/05/18 01:34:26;;;;;;;8.65;3.55;;;10.30;99.90;;;;;;4923820;29;20031;-95
2023/05/18 01:36:52;;;;;;;5.50;3.90;;;10.20;99.90;;;;;;4922076;29;20036;-94
2023/05/18 01:39:18;;;;;;;7.40;3.90;;;10.20;99.90;;;;;;4938580;29;20026;-95
2023/05/18 01:41:58;;;;;;;8.25;4.10;;;10.20;99.90;;;;;;4921979;29;20036;-94
2023/05/18 01:44:28;;;;;;;7.18;3.75;;;10.20;99.90;;;;;;4921690;29;20024;-95
2023/05/18 01:47:06;;;;;;;7.43;3.75;;;10.20;99.90;;;;;;4923302;29;20129;-95
2023/05/18 01:49:38;;;;;;;8.13;3.80;;;10.10;99.90;;;;;;4931883;29;20179;-95
2023/05/18 01:52:11;;;;;;;9.13;3.92;;;10.10;99.90;;;;;;4925803;29;20486;-94
2023/05/18 01:54:43;;;;;;;6.35;3.60;;;10.10;99.90;;;;;;4921692;29;20042;-93
2023/05/18 01:57:10;;;;;;;9.65;4.07;;;10.10;99.90;;;;;;4921252;29;20057;-93
2023/05/18 01:59:37;;;;;;;6.45;3.67;;;10.10;99.90;;;;;;4923907;29;20020;-96
2023/05/18 02:02:04;;;;;;;7.32;4.28;;;10.10;99.90;;;;;;4921391;29;20087;-95
2023/05/18 02:04:30;;;;;;;12.15;3.65;;;10.10;99.90;;;;;;4921362;29;20023;-94
2023/05/18 02:06:56;;;;;;;5.82;3.67;;;10.10;99.90;;;;;;4921381;29;20039;-95
2023/05/18 02:09:22;;;;;;;6.45;3.78;;;10.10;99.90;;;;;;4937932;29;20031;-95
2023/05/18 02:11:48;;;;;;;7.63;3.80;;;10.10;99.90;;;;;;4921445;29;20023;-94
2023/05/18 02:14:14;;;;;;;6.80;3.92;;;10.10;99.90;;;;;;4920880;29;20035;-95
2023/05/18 02:16:39;;;;;;;7.38;3.50;;;10.10;99.90;;;;;;4920693;29;20058;-94
2023/05/18 02:19:07;;;;;;;9.23;3.95;;;10.00;99.90;;;;;;4921510;29;20048;-96
2023/05/18 02:21:34;;;;;;;8.75;3.33;;;10.00;99.90;;;;;;4921534;29;20032;-95
2023/05/18 02:24:00;;;;;;;9.10;3.72;;;10.00;99.90;;;;;;4922175;29;20038;-96
2023/05/18 02:26:26;;;;;;;8.13;3.60;;;10.00;99.90;;;;;;4925030;29;20134;-96
2023/05/18 02:28:52;;;;;;;9.50;4.28;;;10.00;99.90;;;;;;4939173;29;20051;-94
2023/05/18 02:31:18;;;;;;;6.18;3.42;;;10.00;99.90;;;;;;4919603;29;20086;-94
2023/05/18 02:33:43;;;;;;;8.27;4.00;;;10.00;99.90;;;;;;4930905;29;20118;-96
2023/05/18 02:36:11;;;;;;;8.13;3.83;;;10.00;99.90;;;;;;4927445;29;20027;-95
2023/05/18 02:38:39;;;;;;;5.75;3.45;;;9.90;99.90;;;;;;4927262;29;20079;-95
2023/05/18 02:41:05;;;;;;;7.32;3.67;;;9.90;99.90;;;;;;4925793;29;20032;-95
2023/05/18 02:43:31;;;;;;;8.43;4.32;;;9.90;99.90;;;;;;4925577;29;20063;-94
2023/05/18 02:45:57;;;;;;;7.63;4.07;;;9.80;99.90;;;;;;4926104;29;20492;-95
2023/05/18 02:48:23;;;;;;;18.65;4.70;;;9.80;99.90;;;;;;4926523;29;20096;-96
2023/05/18 02:50:49;;;;;;;8.88;3.67;;;9.80;99.90;;;;;;4926536;29;20035;-96
2023/05/18 02:53:16;;;;;;;6.45;4.68;;;9.70;99.90;;;;;;4931641;29;20039;-95
2023/05/18 02:55:42;;;;;;;6.43;4.18;;;9.70;99.90;;;;;;4919135;29;20055;-94
2023/05/18 02:58:08;;;;;;;10.23;4.07;;;9.70;99.90;;;;;;4925483;29;20039;-96
2023/05/18 03:00:34;;;;;;;7.28;4.13;;;9.70;99.90;;;;;;4924935;29;20366;-94
2023/05/18 03:03:01;;;;;;;8.63;3.72;;;9.70;99.90;;;;;;4923822;29;20039;-95
2023/05/18 03:05:27;;;;;;;8.20;3.72;;;9.70;99.90;;;;;;4908489;29;20453;-95
2023/05/18 03:07:53;;;;;;;8.18;4.13;;;9.60;99.90;;;;;;4923827;29;20027;-96
2023/05/18 03:10:19;;;;;;;6.65;3.80;;;9.60;99.90;;;;;;4924056;29;20091;-94
2023/05/18 03:12:46;;;;;;;8.25;3.28;;;9.50;99.90;;;;;;4923887;29;20028;-95
2023/05/18 03:15:12;;;;;;;7.22;4.10;;;9.50;99.90;;;;;;4923378;29;20019;-95
2023/05/18 03:17:40;;;;;;;9.35;3.67;;;9.50;99.90;;;;;;4925673;29;20035;-95
2023/05/18 03:20:07;;;;;;;7.20;3.67;;;9.50;99.90;;;;;;4923854;29;20106;-93
2023/05/18 03:22:32;;;;;;;7.70;3.80;;;9.40;99.90;;;;;;4923380;29;20028;-95
2023/05/18 03:25:01;;;;;;;6.13;3.72;;;9.50;99.90;;;;;;4923507;29;20036;-95
2023/05/18 03:27:27;;;;;;;7.88;3.70;;;9.40;99.90;;;;;;4923552;29;20034;-96
2023/05/18 03:29:53;;;;;;;7.40;3.95;;;9.40;99.90;;;;;;4923685;29;20123;-96
2023/05/18 03:32:20;;;;;;;6.68;4.00;;;9.40;99.90;;;;;;4923359;29;20066;-93
2023/05/18 03:34:46;;;;;;;7.55;4.00;;;9.40;99.90;;;;;;4922851;29;20032;-94
2023/05/18 03:37:13;;;;;;;10.35;3.63;;;9.40;99.90;;;;;;4923024;29;20549;-94
2023/05/18 03:39:40;;;;;;;6.25;3.85;;;9.30;99.90;;;;;;4922744;29;20059;-95
2023/05/18 03:42:07;;;;;;;10.43;3.92;;;9.30;99.90;;;;;;4923392;29;20028;-94
2023/05/18 03:44:34;;;;;;;7.65;4.03;;;9.30;99.90;;;;;;4923401;29;20028;-95
2023/05/18 03:47:00;;;;;;;10.45;4.30;;;9.30;99.90;;;;;;4925910;29;20044;-96
2023/05/18 03:49:26;;;;;;;7.60;4.10;;;9.20;99.90;;;;;;4931890;29;20027;-93
2023/05/18 03:51:53;;;;;;;6.15;3.83;;;9.20;99.90;;;;;;4933370;29;20027;-94
2023/05/18 03:54:19;;;;;;;7.28;3.80;;;9.20;99.90;;;;;;4931856;29;20038;-94
2023/05/18 03:56:45;;;;;;;8.23;3.70;;;9.20;99.90;;;;;;4928029;29;20083;-94
2023/05/18 03:59:12;;;;;;;9.38;4.20;;;9.20;99.90;;;;;;4925212;29;20055;-93
2023/05/18 04:01:41;;;;;;;10.23;4.30;;;9.10;99.90;;;;;;4923202;29;20023;-95
2023/05/18 04:04:07;;;;;;;9.63;3.90;;;9.10;99.90;;;;;;4923126;29;20035;-95
2023/05/18 04:06:36;;;;;;;7.13;4.47;;;9.10;99.90;;;;;;4923582;29;20032;-94
2023/05/18 04:09:03;;;;;;;8.43;4.00;;;9.00;99.90;;;;;;4922724;29;20052;-94
2023/05/18 04:11:31;;;;;;;9.00;4.00;;;9.00;99.90;;;;;;4923151;29;20028;-94
2023/05/18 04:13:59;;;;;;;8.82;3.88;;;9.00;99.90;;;;;;4923899;29;20020;-94
2023/05/18 04:16:30;;;;;;;8.30;4.07;;;9.00;99.90;;;;;;4942604;29;20095;-92
2023/05/18 04:18:56;;;;;;;8.80;4.28;;;9.00;99.90;;;;;;4937498;29;20031;-94
2023/05/18 04:21:22;;;;;;;8.88;4.35;;;9.00;99.90;;;;;;4940743;29;20031;-95
2023/05/18 04:23:47;;;;;;;8.98;4.35;;;8.90;99.90;;;;;;4941953;29;20028;-94
2023/05/18 04:26:18;;;;;;;8.15;4.22;;;8.90;99.90;;;;;;4942220;29;20056;-94
2023/05/18 04:28:48;;;;;;;10.38;4.47;;;8.90;99.90;;;;;;4943627;29;20052;-94
2023/05/18 04:31:16;;;;;;;9.27;4.37;;;8.90;99.90;;;;;;4936248;29;20115;-93
2023/05/18 04:33:45;;;;;;;7.10;4.25;;;9.00;99.90;;;;;;4921380;29;20282;-95
2023/05/18 04:36:11;;;;;;;7.38;4.05;;;9.00;99.90;;;;;;4922250;29;20039;-96
2023/05/18 04:38:37;;;;;;;6.90;3.72;;;9.00;99.90;;;;;;4922361;29;20497;-94
2023/05/18 04:41:06;;;;;;;10.55;4.28;;;8.90;99.90;;;;;;4922281;29;20036;-96
2023/05/18 04:43:33;;;;;;;13.35;4.63;;;9.00;99.90;;;;;;4922484;29;20023;-96
2023/05/18 04:45:58;;;;;;;9.23;4.10;;;8.90;99.90;;;;;;4922802;29;20027;-94
2023/05/18 04:48:24;;;;;;;7.10;4.13;;;8.90;99.90;;;;;;4922574;29;20690;-93
2023/05/18 04:50:53;;;;;;;9.88;4.28;;;8.90;99.90;;;;;;4922008;29;20118;-95
2023/05/18 04:53:21;;;;;;;8.18;3.92;;;8.90;99.90;;;;;;4939072;29;20102;-95
2023/05/18 04:55:52;;;;;;;6.82;4.13;;;8.90;99.90;;;;;;4922816;29;20027;-93
2023/05/18 04:58:17;;;;;;;10.10;4.80;;;8.90;99.90;;;;;;4922690;29;20493;-95
2023/05/18 05:00:43;;;;;;;9.77;4.25;;;8.90;99.90;;;;;;4922204;29;20034;-95
2023/05/18 05:03:09;;;;;;;8.85;4.47;;;8.90;99.90;;;;;;4921679;29;20064;-94
2023/05/18 05:05:35;;;;;;;10.32;4.07;;;8.90;99.90;;;;;;4922729;29;20031;-94
2023/05/18 05:08:00;;;;;;;9.38;4.47;;;9.00;99.90;;;;;;4921000;29;20020;-95
2023/05/18 05:10:29;;;;;;;6.68;4.22;;;9.00;99.90;;;;;;4921463;29;20035;-94
2023/05/18 05:12:55;;;;;;;8.32;4.15;;;9.00;99.90;;;;;;4921450;29;20039;-93
2023/05/18 05:15:21;;;;;;;8.82;4.35;;;9.00;99.90;;;;;;4921659;29;20139;-94
2023/05/18 05:17:47;;;;;;;7.80;4.00;;;9.10;99.90;;;;;;4927402;29;20031;-94
2023/05/18 05:20:12;;;;;;;11.00;4.15;;;9.00;99.90;;;;;;4938366;29;20122;-93
2023/05/18 05:22:41;;;;;;;9.77;4.30;;;9.10;99.90;;;;;;4924020;29;20035;-94
2023/05/18 05:25:07;;;;;;;8.15;4.25;;;9.10;99.90;;;;;;4922750;29;20050;-94
2023/05/18 05:27:33;;;;;;;9.23;4.05;;;9.10;99.90;;;;;;4922225;29;20095;-93
2023/05/18 05:29:58;;;;;;;6.65;4.18;;;9.10;99.90;;;;;;4921852;29;20042;-93
2023/05/18 05:32:24;;;;;;;6.57;3.60;;;9.10;99.90;;;;;;4922296;29;20035;-94
2023/05/18 05:34:50;;;;;;;8.00;4.50;;;9.10;99.90;;;;;;4921970;29;20432;-93
2023/05/18 05:37:17;;;;;;;11.52;4.35;;;9.10;99.90;;;;;;4921308;29;20474;-93
2023/05/18 05:39:43;;;;;;;9.85;4.70;;;9.10;99.90;;;;;;4921600;29;20028;-92
2023/05/18 05:42:09;;;;;;;9.43;4.70;;;9.10;99.90;;;;;;4920999;29;20043;-94
2023/05/18 05:44:35;;;;;;;9.98;4.60;;;9.10;99.90;;;;;;4921695;29;20024;-94
2023/05/18 05:47:01;;;;;;;9.85;4.43;;;9.10;99.90;;;;;;4920790;29;20027;-94
2023/05/18 05:49:28;;;;;;;9.70;4.82;;;9.20;99.90;;;;;;4905063;29;20051;-93
2023/05/18 05:51:54;;;;;;;8.40;4.28;;;9.20;99.90;;;;;;4920854;29;20023;-93
2023/05/18 05:54:20;;;;;;;10.35;4.93;;;9.20;99.90;;;;;;4920802;29;20371;-94
2023/05/18 05:56:45;;;;;;;8.57;4.57;;;9.30;99.90;;;;;;4921317;29;20040;-93
2023/05/18 05:59:11;;;;;;;7.05;4.30;;;9.30;99.90;;;;;;4925432;29;20044;-95
2023/05/18 06:01:36;;;;;;;8.40;4.53;;;9.40;99.90;;;;;;4932463;29;20032;-94
2023/05/18 06:04:05;;;;;;;11.13;4.78;;;9.40;99.90;;;;;;4924636;29;20470;-94
2023/05/18 06:06:30;;;;;;;9.15;5.15;;;9.40;99.90;;;;;;4925809;29;20035;-94
2023/05/18 06:08:59;;;;;;;8.68;4.35;;;9.50;99.90;;;;;;4926520;29;20043;-93
2023/05/18 06:11:25;;;;;;;8.63;4.10;;;9.60;99.90;;;;;;4925560;29;20035;-94
2023/05/18 06:13:51;;;;;;;11.02;5.03;;;9.60;99.90;;;;;;4928446;29;20056;-94
2023/05/18 06:16:17;;;;;;;15.93;4.47;;;9.60;99.90;;;;;;4926620;29;20036;-94
2023/05/18 06:18:44;;;;;;;8.43;4.70;;;9.70;99.90;;;;;;4927527;29;20534;-94
2023/05/18 06:21:10;;;;;;;9.10;4.15;;;9.70;99.90;;;;;;4925098;29;20118;-95
2023/05/18 06:23:35;;;;;;;11.80;4.22;;;9.80;99.90;;;;;;4924250;29;20044;-94
2023/05/18 06:26:01;;;;;;;9.15;5.00;;;9.80;99.90;;;;;;4924032;29;20517;-95
2023/05/18 06:28:27;;;;;;;11.25;4.93;;;9.90;99.90;;;;;;4924078;29;20036;-94
2023/05/18 06:30:53;;;;;;;11.93;4.40;;;10.00;99.90;;;;;;4923989;29;20027;-95
2023/05/18 06:33:20;;;;;;;11.73;4.63;;;10.10;99.90;;;;;;4924314;29;20035;-95
2023/05/18 06:35:46;;;;;;;12.18;4.93;;;10.10;99.90;;;;;;4925929;29;20028;-95
2023/05/18 06:38:20;;;;;;;12.38;4.88;;;10.20;99.90;;;;;;4935350;29;20036;-95
2023/05/18 06:40:45;;;;;;;8.63;4.78;;;10.30;99.90;;;;;;4920666;29;20505;-95
2023/05/18 06:43:13;;;;;;;9.90;5.50;;;10.30;99.90;;;;;;4930735;29;20039;-95
2023/05/18 06:45:40;;;;;;;15.32;5.22;;;10.40;99.90;;;;;;4935665;29;20031;-95
2023/05/18 06:48:05;;;;;;;9.88;4.70;;;10.50;99.90;;;;;;4921795;29;20474;-95
2023/05/18 06:50:39;;;;;;;9.20;4.40;;;10.50;99.90;;;;;;4945580;29;20048;-96
2023/05/18 06:53:06;;;;;;;8.52;4.43;;;10.60;99.90;;;;;;4930805;29;20039;-96
2023/05/18 06:55:34;;;;;;;8.77;5.03;;;10.70;99.90;;;;;;4916176;29;20040;-94
2023/05/18 06:57:59;;;;;;;10.40;5.13;;;10.70;99.90;;;;;;4917104;29;20043;-95
2023/05/18 07:00:25;;;;;;;10.95;4.85;;;10.80;99.90;;;;;;4932261;29;20024;-95
2023/05/18 07:02:51;;;;;;;8.07;4.80;;;10.80;99.90;;;;;;4933762;29;20027;-92
2023/05/18 07:05:18;;;;;;;8.95;4.40;;;10.90;99.90;;;;;;4929751;29;20032;-95
2023/05/18 07:07:43;;;;;;;8.43;4.57;;;10.90;99.90;;;;;;4928507;29;20028;-95
2023/05/18 07:10:09;;;;;;;11.18;4.95;;;11.00;99.90;;;;;;4928044;29;20482;-95
2023/05/18 07:12:35;;;;;;;10.27;5.30;;;11.10;99.90;;;;;;4928992;29;20541;-96
2023/05/18 07:15:04;;;;;;;10.20;4.88;;;11.20;99.90;;;;;;4930093;29;20466;-94
2023/05/18 07:17:30;;;;;;;9.60;4.78;;;11.30;99.90;;;;;;4926693;29;20031;-96
2023/05/18 07:19:56;;;;;;;10.43;5.10;;;11.40;99.90;;;;;;4930011;29;20024;-94
2023/05/18 07:22:22;;;;;;;12.50;5.20;;;11.50;99.90;;;;;;4928987;29;20023;-96
2023/05/18 07:24:47;;;;;;;9.02;4.95;;;11.60;99.90;;;;;;4928170;29;20037;-96
2023/05/18 07:27:13;;;;;;;11.13;5.07;;;11.60;99.90;;;;;;4927609;29;20066;-96
2023/05/18 07:29:39;;;;;;;8.63;4.25;;;11.70;99.90;;;;;;4926116;29;20517;-94
2023/05/18 07:32:10;;;;;;;13.88;5.22;;;11.80;99.90;;;;;;4933248;29;20024;-96
2023/05/18 07:34:37;;;;;;;12.63;5.03;;;11.80;99.90;;;;;;4940943;29;20115;-96
2023/05/18 07:37:05;;;;;;;10.00;5.25;;;11.90;99.90;;;;;;4936265;29;20040;-96
2023/05/18 07:39:33;;;;;;;9.38;5.30;;;12.00;99.90;;;;;;4934022;29;20038;-95
2023/05/18 07:42:02;;;;;;;12.13;4.75;;;12.10;99.90;;;;;;4920437;29;20040;-96
2023/05/18 07:44:43;;;;;;;12.52;4.88;;;12.20;99.90;;;;;;4941970;29;20030;-96
2023/05/18 07:47:22;;;;;;;7.80;4.43;;;12.20;99.90;;;;;;4936245;29;20043;-96
2023/05/18 07:50:17;;;;;;;13.32;5.13;;;12.30;99.90;;;;;;4941589;29;20059;-96
2023/05/18 07:53:03;;;;;;;11.20;4.85;;;12.40;99.90;;;;;;4918045;29;20064;-95
2023/05/18 07:55:43;;;;;;;12.48;5.20;;;12.60;99.90;;;;;;4938946;29;20032;-96
2023/05/18 07:58:12;;;;;;;8.43;4.30;;;12.70;99.90;;;;;;4937762;29;20040;-94
2023/05/18 08:00:38;;;;;;;12.30;5.45;;;12.80;99.90;;;;;;4935586;29;20040;-96
2023/05/18 08:03:08;;;;;;;9.40;4.80;;;12.90;99.90;;;;;;4936389;29;20039;-96
2023/05/18 08:05:52;;;;;;;10.85;4.85;;;13.00;99.90;;;;;;4927666;29;20067;-96
2023/05/18 08:08:19;;;;;;;7.13;4.60;;;13.20;99.90;;;;;;4938260;29;20095;-96
2023/05/18 08:10:45;;;;;;;10.57;5.22;;;13.40;99.90;;;;;;4945041;29;20020;-95
2023/05/18 08:13:12;;;;;;;11.32;5.05;;;13.60;99.90;;;;;;4936096;29;20036;-96
2023/05/18 08:15:41;;;;;;;12.02;5.13;;;13.80;99.90;;;;;;4939938;29;20099;-96
2023/05/18 08:18:13;;;;;;;12.23;5.38;;;14.00;99.90;;;;;;4942222;29;20035;-96
2023/05/18 08:20:46;;;;;;;13.38;5.07;;;14.20;99.90;;;;;;4920417;29;20028;-96
2023/05/18 08:25:51;;;;;;;16.33;8.85;;;14.40;99.90;;;;;;5373078;23;20056;-94
2023/05/18 08:28:19;;;;;;;13.65;7.43;;;14.50;99.90;;;;;;4922008;29;20020;-95
2023/05/18 08:30:44;;;;;;;16.15;6.95;;;14.50;99.90;;;;;;4938084;29;20035;-94
2023/05/18 08:33:15;;;;;;;15.35;6.30;;;14.60;99.90;;;;;;4937510;29;20107;-94
2023/05/18 08:35:41;;;;;;;15.63;6.28;;;14.70;99.90;;;;;;4924652;29;20040;-94
2023/05/18 08:38:07;;;;;;;12.35;6.43;;;14.80;99.90;;;;;;4921985;29;20060;-94
2023/05/18 08:40:45;;;;;;;9.57;5.93;;;14.90;99.90;;;;;;4920986;29;20028;-94
2023/05/18 08:43:17;;;;;;;16.00;5.95;;;15.00;99.90;;;;;;4920837;29;20028;-95
2023/05/18 08:46:16;;;;;;;15.60;6.10;;;15.10;99.90;;;;;;4920810;29;20035;-95
2023/05/18 08:48:49;;;;;;;17.15;6.93;;;15.30;99.90;;;;;;4919406;29;20020;-95
2023/05/18 08:51:19;;;;;;;20.23;6.55;;;15.40;99.90;;;;;;4916334;29;20062;-95
2023/05/18 08:53:53;;;;;;;18.60;6.40;;;15.50;99.90;;;;;;4937646;29;20020;-96
2023/05/18 08:56:29;;;;;;;11.82;5.63;;;15.60;99.90;;;;;;4921938;29;20052;-93
2023/05/18 08:59:03;;;;;;;14.95;6.85;;;15.70;99.90;;;;;;5004113;23;20035;-96
2023/05/18 09:26:25;;;;;;;16.35;6.95;;;16.70;97.10;;;;;;4952931;29;20060;-95
2023/05/18 09:28:52;;;;;;;15.63;5.88;;;16.90;96.40;;;;;;4955548;29;20091;-96
2023/05/18 09:31:23;;;;;;;14.95;7.30;;;17.10;95.70;;;;;;4938847;29;20062;-95
2023/05/18 09:33:52;;;;;;;13.80;5.65;;;17.30;94.80;;;;;;4959095;28;20004;-95
2023/05/18 09:36:25;;;;;;;16.02;5.55;;;17.50;93.70;;;;;;5099359;23;20058;-91
2023/05/18 09:38:53;;;;;;;17.48;6.25;;;17.60;92.80;;;;;;4979702;28;20074;-95
2023/05/18 09:44:11;;;;;;;8.05;4.95;;;17.90;91.30;;;;;;5169694;23;20058;-95
2023/05/18 09:46:42;;;;;;;8.43;4.70;;;18.10;90.80;;;;;;4979708;28;20023;-96
2023/05/18 09:49:20;;;;;;;;;;;18.20;90.10;;;;;;4963047;28;20035;-95
2023/05/18 09:51:46;;;;;;;14.52;4.68;;;18.30;89.40;;;;;;4979572;28;19910;-96
2023/05/18 09:54:12;;;;;;;12.13;4.20;;;18.40;87.90;;;;;;4975101;28;20078;-94
2023/05/18 09:56:42;;;;;;;8.70;4.00;;;18.40;85.80;;;;;;4977843;28;20038;-96
2023/05/18 09:59:14;;;;;;;11.07;5.28;;;18.40;84.60;;;;;;4979566;28;20039;-95
2023/05/18 10:10:03;;;;;;;9.98;4.13;;;18.40;79.80;;;;;;4956290;28;20082;-94
2023/05/18 10:12:32;;;;;;;8.27;4.00;;;18.40;79.40;;;;;;4958722;29;20035;-95
2023/05/18 10:14:58;;;;;;;9.45;4.03;;;18.40;79.30;;;;;;4939605;29;20018;-94
2023/05/18 10:17:26;;;;;;;7.82;3.80;;;18.40;78.60;;;;;;4958170;28;20051;-96
2023/05/18 10:19:55;;;;;;;10.07;4.50;;;18.50;78.60;;;;;;4941358;29;20066;-94
2023/05/18 10:36:41;;;;;;;11.82;5.00;;;18.50;74.70;;;;;;5543500;23;20116;-94
2023/05/18 10:39:10;;;;;;;12.10;4.80;;;18.50;74.70;;;;;;4960787;28;20034;-94
2023/05/18 10:41:38;;;;;;;8.88;4.22;;;18.50;74.60;;;;;;4966126;28;20030;-94
2023/05/18 10:44:05;;;;;;;8.05;4.07;;;18.50;74.70;;;;;;4970455;28;20060;-95
2023/05/18 10:46:32;;;;;;;15.40;4.65;;;18.60;75.50;;;;;;4963460;28;20034;-94
2023/05/18 10:48:59;;;;;;;12.82;4.20;;;18.70;74.90;;;;;;4961576;28;20027;-94
2023/05/18 10:51:28;;;;;;;8.35;3.67;;;18.80;74.60;;;;;;4960334;28;20030;-95
2023/05/18 10:54:06;;;;;;;9.93;3.78;;;18.90;74.30;;;;;;4965508;28;20485;-95
2023/05/18 10:56:34;;;;;;;7.53;3.83;;;18.90;74.10;;;;;;4974636;28;20043;-94
2023/05/18 10:59:00;;;;;;;10.48;4.95;;;19.10;74.10;;;;;;4971971;28;20172;-94
2023/05/18 11:01:26;;;;;;;8.60;4.22;;;19.20;74.00;;;;;;4976497;28;20026;-96
2023/05/18 11:03:51;;;;;;;9.07;4.32;;;19.20;73.20;;;;;;4992912;28;20031;-94
2023/05/18 11:06:23;;;;;;;6.75;3.70;;;19.20;72.50;;;;;;4967539;28;20029;-95
2023/05/18 11:08:55;;;;;;;8.30;3.90;;;19.20;71.50;;;;;;4988978;28;20106;-95
2023/05/18 11:11:28;;;;;;;6.88;4.00;;;19.20;71.30;;;;;;4989260;28;20031;-95
2023/05/18 11:14:02;;;;;;;7.78;4.00;;;19.20;71.20;;;;;;4974395;28;20077;-95
2023/05/18 11:16:34;;;;;;;18.83;4.85;;;19.30;71.10;;;;;;4974201;28;20472;-95
2023/05/18 11:19:06;;;;;;;8.10;4.28;;;19.40;70.80;;;;;;4973356;28;20096;-94
2023/05/18 11:21:34;;;;;;;10.13;4.72;;;19.40;70.40;;;;;;4971111;28;20465;-94
2023/05/18 11:24:22;;;;;;;11.88;4.22;;;19.50;70.20;;;;;;4972264;28;20034;-94
2023/05/18 11:27:15;;;;;;;9.73;4.38;;;19.50;69.60;;;;;;4977877;28;20023;-94
2023/05/18 11:29:47;;;;;;;8.45;4.38;;;19.70;69.00;;;;;;4973152;28;20058;-96
2023/05/18 11:32:48;;;;;;;9.75;4.13;;;19.90;68.40;;;;;;4965578;28;20046;-95
2023/05/18 11:35:22;;;;;;;10.80;3.42;;;20.00;67.50;;;;;;4967085;28;20058;-95
2023/05/18 12:06:42;;;;;;;10.30;5.15;;;19.70;65.40;;;;;;4979134;23;20026;-91
2023/05/18 12:09:13;;;;;;;11.90;4.63;;;19.70;65.40;;;;;;4947612;29;20105;-94
2023/05/18 12:11:43;;;;;;;13.60;4.47;;;19.70;65.40;;;;;;4953208;29;20030;-96
2023/05/18 12:14:10;;;;;;;13.70;4.95;;;19.80;65.50;;;;;;4936661;29;20020;-96
2023/05/18 12:16:38;;;;;;;8.20;4.57;;;19.70;64.90;;;;;;4935314;29;20046;-96
2023/05/18 12:19:07;;;;;;;9.20;4.57;;;19.70;64.60;;;;;;4924039;29;20047;-96
2023/05/18 12:21:36;;;;;;;13.10;4.90;;;19.70;64.40;;;;;;4923483;29;20079;-94
2023/05/18 12:24:02;;;;;;;10.45;4.00;;;19.70;64.60;;;;;;4927313;29;20055;-96
2023/05/18 12:26:31;;;;;;;11.02;4.07;;;19.70;64.80;;;;;;4934330;29;20058;-94
2023/05/18 12:29:00;;;;;;;12.65;4.20;;;19.70;64.80;;;;;;4940544;29;20024;-94
2023/05/18 12:31:26;;;;;;;15.23;4.60;;;19.70;64.50;;;;;;4927248;29;20032;-93
2023/05/18 12:33:56;;;;;;;9.52;4.72;;;19.70;64.40;;;;;;4927142;29;20023;-93
2023/05/18 12:36:22;;;;;;;10.07;5.10;;;19.80;64.70;;;;;;4926929;29;20031;-93
2023/05/18 12:38:52;;;;;;;8.57;4.40;;;19.80;64.60;;;;;;4923743;29;20055;-93
2023/05/18 12:41:25;;;;;;;10.52;4.78;;;19.80;64.30;;;;;;4924920;29;20035;-96
2023/05/18 12:43:53;;;;;;;10.40;4.40;;;19.80;64.10;;;;;;4923673;29;20028;-93
2023/05/18 12:46:22;;;;;;;8.55;4.90;;;19.80;64.00;;;;;;4923615;29;20122;-94
2023/05/18 12:48:57;;;;;;;10.20;4.80;;;19.80;63.80;;;;;;4924000;29;20031;-93
2023/05/18 12:51:23;;;;;;;11.82;4.22;;;19.70;63.50;;;;;;4923385;29;20062;-95
2023/05/18 12:53:49;;;;;;;11.57;4.95;;;19.70;63.70;;;;;;4923506;29;20027;-94
2023/05/18 12:56:16;;;;;;;12.90;5.30;;;19.70;63.70;;;;;;4908583;29;20099;-93
2023/05/18 12:58:57;;;;;;;11.05;4.80;;;19.70;63.70;;;;;;4923428;29;20039;-95
2023/05/18 13:01:23;;;;;;;12.77;4.70;;;19.70;64.00;;;;;;4940059;29;20119;-96
2023/05/18 13:03:56;;;;;;;12.23;5.57;;;19.70;64.00;;;;;;4941087;29;20121;-94
2023/05/18 13:06:21;;;;;;;11.65;4.88;;;19.70;63.90;;;;;;4950503;29;20038;-95
2023/05/18 13:08:47;;;;;;;12.82;5.38;;;19.60;63.90;;;;;;4942954;29;20051;-95
2023/05/18 13:11:15;;;;;;;8.65;4.93;;;19.60;63.80;;;;;;4941038;29;20024;-94
2023/05/18 13:13:57;;;;;;;9.93;4.90;;;19.50;63.80;;;;;;4938357;29;20031;-95
2023/05/18 13:16:23;;;;;;;14.05;5.07;;;19.50;64.10;;;;;;4939271;29;20040;-95
2023/05/18 13:18:55;;;;;;;12.02;5.85;;;19.50;64.00;;;;;;4938145;29;20024;-94
2023/05/18 13:21:21;;;;;;;12.10;5.88;;;19.60;64.10;;;;;;4938043;29;20054;-96
2023/05/18 13:23:47;;;;;;;10.70;5.50;;;19.60;63.90;;;;;;4938682;29;20032;-93
2023/05/18 13:26:13;;;;;;;13.90;5.75;;;19.70;63.90;;;;;;4939849;29;20028;-96
2023/05/18 13:28:40;;;;;;;9.02;4.63;;;19.80;64.00;;;;;;4939470;29;20060;-96
2023/05/18 13:31:06;;;;;;;14.15;4.88;;;19.90;63.80;;;;;;4939201;29;20063;-96
2023/05/18 13:33:31;;;;;;;9.40;5.43;;;20.00;64.20;;;;;;4939247;29;20470;-95
2023/05/18 13:35:58;;;;;;;10.50;5.25;;;20.10;64.10;;;;;;4938974;29;20115;-94
2023/05/18 13:38:25;;;;;;;15.80;6.13;;;20.20;63.80;;;;;;4938716;29;20051;-96
2023/05/18 13:40:50;;;;;;;8.73;5.30;;;20.30;63.90;;;;;;4938609;29;20024;-94
2023/05/18 13:43:16;;;;;;;11.00;4.68;;;20.30;63.90;;;;;;4937617;29;20032;-94
2023/05/18 13:45:42;;;;;;;12.02;5.07;;;20.40;64.00;;;;;;4937972;29;20032;-95
2023/05/18 13:48:08;;;;;;;10.82;5.10;;;20.50;64.10;;;;;;4940438;29;20235;-95
2023/05/18 13:50:35;;;;;;;12.35;5.50;;;20.50;63.50;;;;;;4944244;29;20059;-96
2023/05/18 13:53:01;;;;;;;13.75;5.63;;;20.40;63.40;;;;;;4955047;29;20020;-95
2023/05/18 13:55:27;;;;;;;13.15;5.53;;;20.40;63.30;;;;;;4948325;29;20037;-94
2023/05/18 13:57:52;;;;;;;15.13;5.85;;;20.30;63.50;;;;;;4939671;29;20075;-95
2023/05/18 14:00:19;;;;;;;14.63;5.88;;;20.30;63.60;;;;;;4939439;29;20024;-95
2023/05/18 14:02:45;;;;;;;11.00;5.60;;;20.40;63.80;;;;;;4942902;29;20031;-95
2023/05/18 14:05:12;;;;;;;13.25;5.30;;;20.30;64.20;;;;;;4941095;29;20032;-95
2023/05/18 14:07:40;;;;;;;13.27;5.35;;;20.40;64.50;;;;;;4941693;29;20111;-95
2023/05/18 14:10:07;;;;;;;17.10;6.22;;;20.30;64.70;;;;;;4948710;29;20047;-96
2023/05/18 14:12:33;;;;;;;13.30;5.78;;;20.30;64.70;;;;;;4953104;29;20083;-96
2023/05/18 14:15:01;;;;;;;11.02;5.53;;;20.30;64.80;;;;;;4955315;29;20019;-95